createdAt,value
2019-02-12T00:00:42.800Z,1022.43
2019-02-12T00:01:42.754Z,1022.41
2019-02-12T00:02:42.740Z,1022.43
2019-02-12T00:03:42.729Z,1022.48
2019-02-12T00:04:42.716Z,1022.56
2019-02-12T00:05:42.732Z,1022.62
2019-02-12T00:06:42.727Z,1022.60
2019-02-12T00:07:42.752Z,1022.60
2019-02-12T00:08:42.686Z,1022.61
2019-02-12T00:09:42.673Z,1022.65
2019-02-12T00:10:42.696Z,1022.70
2019-02-12T00:11:42.673Z,1022.71
2019-02-12T00:12:42.657Z,1022.70
2019-02-12T00:13:42.624Z,1022.69
2019-02-12T00:14:42.610Z,1022.71
2019-02-12T00:15:42.601Z,1022.74
2019-02-12T00:16:42.618Z,1022.74
2019-02-12T00:17:42.577Z,1022.74
2019-02-12T00:18:42.562Z,1022.72
2019-02-12T00:19:42.554Z,1022.69
2019-02-12T00:20:42.543Z,1022.74
2019-02-12T00:21:42.588Z,1022.76
2019-02-12T00:22:42.549Z,1022.70
2019-02-12T00:23:42.506Z,1022.67
2019-02-12T00:24:42.500Z,1022.69
2019-02-12T00:25:42.486Z,1022.67
2019-02-12T00:26:42.484Z,1022.67
2019-02-12T00:27:43.610Z,1022.69
2019-02-12T00:28:42.453Z,1022.75
2019-02-12T00:29:42.439Z,1022.72
2019-02-12T00:30:42.426Z,1022.74
2019-02-12T00:31:42.423Z,1022.77
2019-02-12T00:32:42.435Z,1022.75
2019-02-12T00:33:42.398Z,1022.73
2019-02-12T00:34:42.382Z,1022.76
2019-02-12T00:35:42.383Z,1022.78
2019-02-12T00:36:42.361Z,1022.78
2019-02-12T00:37:42.381Z,1022.77
2019-02-12T00:38:42.338Z,1022.71
2019-02-12T00:39:42.326Z,1022.74
2019-02-12T00:40:42.315Z,1022.69
2019-02-12T00:41:42.308Z,1022.71
2019-02-12T00:42:42.332Z,1022.74
2019-02-12T00:43:42.286Z,1022.74
2019-02-12T00:44:42.275Z,1022.73
2019-02-12T00:45:42.265Z,1022.75
2019-02-12T00:46:42.252Z,1022.77
2019-02-12T00:47:42.237Z,1022.75
2019-02-12T00:48:42.249Z,1022.74
2019-02-12T00:49:42.219Z,1022.70
2019-02-12T00:50:42.211Z,1022.67
2019-02-12T00:51:42.195Z,1022.63
2019-02-12T00:52:42.178Z,1022.63
2019-02-12T00:53:42.204Z,1022.65
2019-02-12T00:54:42.160Z,1022.69
2019-02-12T00:55:42.156Z,1022.62
2019-02-12T00:56:42.138Z,1022.68
2019-02-12T00:57:42.128Z,1022.68
2019-02-12T00:58:42.165Z,1022.66
2019-02-12T00:59:42.121Z,1022.63
2019-02-12T01:00:42.102Z,1022.62
2019-02-12T01:01:42.093Z,1022.59
2019-02-12T01:02:42.076Z,1022.54
2019-02-12T01:03:42.091Z,1022.60
2019-02-12T01:04:42.050Z,1022.58
2019-02-12T01:05:42.046Z,1022.59
2019-02-12T01:06:42.041Z,1022.58
2019-02-12T01:07:42.021Z,1022.52
2019-02-12T01:08:42.038Z,1022.58
2019-02-12T01:09:42.005Z,1022.58
2019-02-12T01:10:41.995Z,1022.65
2019-02-12T01:11:41.977Z,1022.61
2019-02-12T01:12:41.967Z,1022.60
2019-02-12T01:13:41.966Z,1022.64
2019-02-12T01:14:41.972Z,1022.68
2019-02-12T01:15:41.940Z,1022.66
2019-02-12T01:16:41.974Z,1022.70
2019-02-12T01:17:41.914Z,1022.74
2019-02-12T01:18:41.906Z,1022.70
2019-02-12T01:19:41.958Z,1022.77
2019-02-12T01:20:41.878Z,1022.77
2019-02-12T01:21:41.916Z,1022.78
2019-02-12T01:22:41.862Z,1022.79
2019-02-12T01:23:41.851Z,1022.81
2019-02-12T01:24:41.853Z,1022.85
2019-02-12T01:25:41.853Z,1022.87
2019-02-12T01:26:41.823Z,1022.84
2019-02-12T01:27:41.806Z,1022.96
2019-02-12T01:28:41.810Z,1022.91
2019-02-12T01:29:41.788Z,1022.96
2019-02-12T01:30:41.799Z,1022.97
2019-02-12T01:31:41.759Z,1022.99
2019-02-12T01:32:41.750Z,1023.00
2019-02-12T01:33:41.781Z,1023.00
2019-02-12T01:34:41.727Z,1023.05
2019-02-12T01:35:41.796Z,1022.99
2019-02-12T01:36:41.714Z,1022.97
2019-02-12T01:37:41.693Z,1022.98
2019-02-12T01:38:41.686Z,1022.97
2019-02-12T01:39:41.674Z,1022.98
2019-02-12T01:40:41.699Z,1022.94
2019-02-12T01:41:41.652Z,1022.91
2019-02-12T01:42:41.648Z,1022.93
2019-02-12T01:43:41.636Z,1022.89
2019-02-12T01:44:41.621Z,1022.87
2019-02-12T01:45:41.628Z,1022.84
2019-02-12T01:46:41.600Z,1022.85
2019-02-12T01:47:41.627Z,1022.84
2019-02-12T01:48:41.573Z,1022.86
2019-02-12T01:49:41.569Z,1022.84
2019-02-12T01:50:41.589Z,1022.82
2019-02-12T01:51:41.541Z,1022.86
2019-02-12T01:52:41.528Z,1022.86
2019-02-12T01:53:41.521Z,1022.89
2019-02-12T01:54:41.515Z,1022.89
2019-02-12T01:55:41.496Z,1022.96
2019-02-12T01:56:41.591Z,1022.92
2019-02-12T01:57:41.480Z,1022.92
2019-02-12T01:58:41.483Z,1022.99
2019-02-12T01:59:41.453Z,1022.98
2019-02-12T02:00:41.444Z,1022.99
2019-02-12T02:01:41.477Z,1022.97
2019-02-12T02:02:41.423Z,1022.99
2019-02-12T02:03:41.410Z,1022.94
2019-02-12T02:04:41.397Z,1022.94
2019-02-12T02:05:41.387Z,1022.96
2019-02-12T02:06:41.411Z,1022.98
2019-02-12T02:07:41.364Z,1023.01
2019-02-12T02:08:41.355Z,1022.99
2019-02-12T02:09:41.358Z,1023.07
2019-02-12T02:10:41.332Z,1023.12
2019-02-12T02:11:41.357Z,1023.14
2019-02-12T02:12:41.308Z,1023.10
2019-02-12T02:13:41.298Z,1023.15
2019-02-12T02:14:41.289Z,1023.19
2019-02-12T02:15:41.271Z,1023.23
2019-02-12T02:16:41.288Z,1023.24
2019-02-12T02:17:41.305Z,1023.22
2019-02-12T02:18:41.244Z,1023.21
2019-02-12T02:19:41.241Z,1023.22
2019-02-12T02:20:41.227Z,1023.21
2019-02-12T02:21:44.025Z,1023.21
2019-02-12T02:22:41.216Z,1023.24
2019-02-12T02:23:41.197Z,1023.22
2019-02-12T02:24:41.189Z,1023.23
2019-02-12T02:25:41.166Z,1023.27
2019-02-12T02:26:41.190Z,1023.30
2019-02-12T02:27:41.182Z,1023.29
2019-02-12T02:28:41.135Z,1023.30
2019-02-12T02:29:41.124Z,1023.25
2019-02-12T02:30:41.116Z,1023.27
2019-02-12T02:31:41.108Z,1023.27
2019-02-12T02:32:41.096Z,1023.28
2019-02-12T02:33:41.107Z,1023.26
2019-02-12T02:34:41.070Z,1023.27
2019-02-12T02:35:41.058Z,1023.21
2019-02-12T02:36:41.047Z,1023.18
2019-02-12T02:37:41.037Z,1023.18
2019-02-12T02:38:41.057Z,1023.20
2019-02-12T02:39:41.013Z,1023.21
2019-02-12T02:40:41.002Z,1023.23
2019-02-12T02:41:40.996Z,1023.23
2019-02-12T02:42:41.013Z,1023.21
2019-02-12T02:43:40.967Z,1023.18
2019-02-12T02:44:40.959Z,1023.16
2019-02-12T02:45:40.948Z,1023.14
2019-02-12T02:46:40.956Z,1023.21
2019-02-12T02:47:40.928Z,1023.22
2019-02-12T02:48:40.952Z,1023.23
2019-02-12T02:49:40.903Z,1023.27
2019-02-12T02:50:40.917Z,1023.23
2019-02-12T02:51:40.902Z,1023.21
2019-02-12T02:52:40.871Z,1023.22
2019-02-12T02:53:40.886Z,1023.26
2019-02-12T02:54:40.851Z,1023.27
2019-02-12T02:55:40.840Z,1023.28
2019-02-12T02:56:40.842Z,1023.29
2019-02-12T02:57:40.840Z,1023.27
2019-02-12T02:58:40.813Z,1023.29
2019-02-12T02:59:40.828Z,1023.25
2019-02-12T03:00:40.786Z,1023.26
2019-02-12T03:01:40.785Z,1023.24
2019-02-12T03:02:40.764Z,1023.29
2019-02-12T03:03:40.755Z,1023.26
2019-02-12T03:04:40.777Z,1023.32
2019-02-12T03:05:40.729Z,1023.30
2019-02-12T03:06:40.719Z,1023.30
2019-02-12T03:07:40.709Z,1023.31
2019-02-12T03:08:40.729Z,1023.30
2019-02-12T03:09:40.690Z,1023.37
2019-02-12T03:10:40.678Z,1023.39
2019-02-12T03:11:40.664Z,1023.38
2019-02-12T03:12:40.653Z,1023.42
2019-02-12T03:13:40.642Z,1023.40
2019-02-12T03:14:40.665Z,1023.38
2019-02-12T03:15:40.622Z,1023.36
2019-02-12T03:16:40.611Z,1023.40
2019-02-12T03:17:40.629Z,1023.36
2019-02-12T03:18:40.590Z,1023.35
2019-02-12T03:19:40.602Z,1023.36
2019-02-12T03:20:40.567Z,1023.33
2019-02-12T03:21:40.557Z,1023.33
2019-02-12T03:22:40.553Z,1023.37
2019-02-12T03:23:40.558Z,1023.38
2019-02-12T03:24:40.546Z,1023.39
2019-02-12T03:25:40.511Z,1023.41
2019-02-12T03:26:40.508Z,1023.40
2019-02-12T03:27:40.491Z,1023.40
2019-02-12T03:28:40.485Z,1023.42
2019-02-12T03:29:40.504Z,1023.36
2019-02-12T03:30:40.491Z,1023.38
2019-02-12T03:31:40.454Z,1023.34
2019-02-12T03:32:40.445Z,1023.35
2019-02-12T03:33:40.424Z,1023.32
2019-02-12T03:34:40.436Z,1023.34
2019-02-12T03:35:40.425Z,1023.37
2019-02-12T03:36:40.394Z,1023.37
2019-02-12T03:37:40.390Z,1023.33
2019-02-12T03:38:40.380Z,1023.32
2019-02-12T03:39:40.383Z,1023.37
2019-02-12T03:40:40.380Z,1023.36
2019-02-12T03:41:40.351Z,1023.42
2019-02-12T03:42:40.326Z,1023.41
2019-02-12T03:43:40.314Z,1023.44
2019-02-12T03:44:40.324Z,1023.45
2019-02-12T03:45:40.321Z,1023.46
2019-02-12T03:46:40.286Z,1023.43
2019-02-12T03:47:40.273Z,1023.45
2019-02-12T03:48:40.269Z,1023.46
2019-02-12T03:49:40.251Z,1023.42
2019-02-12T03:50:40.262Z,1023.47
2019-02-12T03:51:40.233Z,1023.46
2019-02-12T03:52:40.214Z,1023.43
2019-02-12T03:53:40.217Z,1023.41
2019-02-12T03:54:40.196Z,1023.46
2019-02-12T03:55:40.213Z,1023.46
2019-02-12T03:56:40.170Z,1023.43
2019-02-12T03:57:40.161Z,1023.45
2019-02-12T03:58:40.154Z,1023.48
2019-02-12T03:59:40.137Z,1023.46
2019-02-12T04:00:40.154Z,1023.46
2019-02-12T04:01:40.249Z,1023.46
2019-02-12T04:02:40.105Z,1023.46
2019-02-12T04:03:40.101Z,1023.49
2019-02-12T04:04:40.096Z,1023.47
2019-02-12T04:05:40.189Z,1023.51
2019-02-12T04:06:40.066Z,1023.48
2019-02-12T04:07:40.049Z,1023.43
2019-02-12T04:08:40.039Z,1023.45
2019-02-12T04:09:40.032Z,1023.42
2019-02-12T04:10:40.049Z,1023.43
2019-02-12T04:11:40.007Z,1023.42
2019-02-12T04:12:40.006Z,1023.39
2019-02-12T04:13:39.992Z,1023.37
2019-02-12T04:14:39.975Z,1023.38
2019-02-12T04:15:40.014Z,1023.39
2019-02-12T04:16:39.953Z,1023.35
2019-02-12T04:17:39.942Z,1023.38
2019-02-12T04:18:39.930Z,1023.39
2019-02-12T04:19:39.918Z,1023.42
2019-02-12T04:20:39.913Z,1023.40
2019-02-12T04:21:39.971Z,1023.44
2019-02-12T04:22:39.888Z,1023.44
2019-02-12T04:23:39.878Z,1023.53
2019-02-12T04:24:39.864Z,1023.49
2019-02-12T04:25:39.861Z,1023.48
2019-02-12T04:26:39.873Z,1023.48
2019-02-12T04:27:39.841Z,1023.52
2019-02-12T04:28:39.823Z,1023.54
2019-02-12T04:29:39.814Z,1023.51
2019-02-12T04:30:39.803Z,1023.53
2019-02-12T04:31:39.812Z,1023.51
2019-02-12T04:32:39.779Z,1023.51
2019-02-12T04:33:39.768Z,1023.46
2019-02-12T04:34:39.762Z,1023.50
2019-02-12T04:35:39.744Z,1023.54
2019-02-12T04:36:39.769Z,1023.49
2019-02-12T04:37:39.721Z,1023.52
2019-02-12T04:38:39.720Z,1023.52
2019-02-12T04:39:39.703Z,1023.50
2019-02-12T04:40:39.687Z,1023.49
2019-02-12T04:41:39.678Z,1023.48
2019-02-12T04:42:39.703Z,1023.50
2019-02-12T04:43:39.666Z,1023.48
2019-02-12T04:44:39.645Z,1023.51
2019-02-12T04:45:39.644Z,1023.52
2019-02-12T04:46:39.659Z,1023.52
2019-02-12T04:47:39.627Z,1023.57
2019-02-12T04:48:39.601Z,1023.54
2019-02-12T04:49:39.589Z,1023.52
2019-02-12T04:50:39.578Z,1023.51
2019-02-12T04:51:39.574Z,1023.52
2019-02-12T04:52:39.579Z,1023.54
2019-02-12T04:53:39.549Z,1023.52
2019-02-12T04:54:39.534Z,1023.56
2019-02-12T04:55:39.533Z,1023.55
2019-02-12T04:56:39.511Z,1023.57
2019-02-12T04:57:39.528Z,1023.54
2019-02-12T04:58:39.488Z,1023.54
2019-02-12T04:59:39.479Z,1023.61
2019-02-12T05:00:39.465Z,1023.61
2019-02-12T05:01:39.469Z,1023.58
2019-02-12T05:02:39.469Z,1023.61
2019-02-12T05:03:39.436Z,1023.62
2019-02-12T05:04:39.424Z,1023.58
2019-02-12T05:05:39.413Z,1023.57
2019-02-12T05:06:39.400Z,1023.58
2019-02-12T05:07:39.431Z,1023.59
2019-02-12T05:08:39.387Z,1023.60
2019-02-12T05:09:39.371Z,1023.61
2019-02-12T05:10:39.362Z,1023.57
2019-02-12T05:11:39.354Z,1023.62
2019-02-12T05:12:39.342Z,1023.63
2019-02-12T05:13:39.350Z,1023.61
2019-02-12T05:14:39.318Z,1023.64
2019-02-12T05:15:39.304Z,1023.61
2019-02-12T05:16:39.290Z,1023.64
2019-02-12T05:17:39.302Z,1023.61
2019-02-12T05:18:39.276Z,1023.65
2019-02-12T05:19:39.267Z,1023.62
2019-02-12T05:20:39.257Z,1023.61
2019-02-12T05:21:39.234Z,1023.62
2019-02-12T05:22:43.675Z,1023.64
2019-02-12T05:23:39.236Z,1023.59
2019-02-12T05:24:39.204Z,1023.61
2019-02-12T05:25:39.205Z,1023.62
2019-02-12T05:26:39.190Z,1023.63
2019-02-12T05:27:39.202Z,1023.65
2019-02-12T05:28:39.167Z,1023.62
2019-02-12T05:29:39.151Z,1023.69
2019-02-12T05:30:39.146Z,1023.65
2019-02-12T05:31:39.125Z,1023.64
2019-02-12T05:32:39.111Z,1023.67
2019-02-12T05:33:39.130Z,1023.67
2019-02-12T05:34:39.090Z,1023.65
2019-02-12T05:35:39.082Z,1023.66
2019-02-12T05:36:39.077Z,1023.68
2019-02-12T05:37:39.068Z,1023.68
2019-02-12T05:38:39.083Z,1023.70
2019-02-12T05:39:39.035Z,1023.68
2019-02-12T05:40:39.033Z,1023.64
2019-02-12T05:41:39.018Z,1023.64
2019-02-12T05:42:39.002Z,1023.65
2019-02-12T05:43:39.024Z,1023.65
2019-02-12T05:44:38.986Z,1023.69
2019-02-12T05:45:38.971Z,1023.71
2019-02-12T05:46:38.959Z,1023.70
2019-02-12T05:47:38.952Z,1023.69
2019-02-12T05:48:38.937Z,1023.68
2019-02-12T05:49:38.950Z,1023.72
2019-02-12T05:50:38.914Z,1023.69
2019-02-12T05:51:38.920Z,1023.68
2019-02-12T05:52:38.900Z,1023.64
2019-02-12T05:53:38.898Z,1023.65
2019-02-12T05:54:38.915Z,1023.68
2019-02-12T05:55:38.859Z,1023.71
2019-02-12T05:56:38.847Z,1023.71
2019-02-12T05:57:38.839Z,1023.75
2019-02-12T05:58:38.825Z,1023.75
2019-02-12T05:59:38.844Z,1023.81
2019-02-12T06:00:38.805Z,1023.74
2019-02-12T06:01:38.794Z,1023.78
2019-02-12T06:02:38.791Z,1023.83
2019-02-12T06:03:38.775Z,1023.84
2019-02-12T06:04:38.799Z,1023.82
2019-02-12T06:05:38.753Z,1023.83
2019-02-12T06:06:38.739Z,1023.86
2019-02-12T06:07:38.727Z,1023.95
2019-02-12T06:08:38.724Z,1023.94
2019-02-12T06:09:38.752Z,1023.97
2019-02-12T06:10:38.720Z,1023.94
2019-02-12T06:11:38.683Z,1023.96
2019-02-12T06:12:38.674Z,1023.92
2019-02-12T06:13:38.659Z,1023.96
2019-02-12T06:14:38.681Z,1023.93
2019-02-12T06:15:38.643Z,1023.95
2019-02-12T06:16:38.634Z,1023.95
2019-02-12T06:17:38.618Z,1023.97
2019-02-12T06:18:38.614Z,1024.03
2019-02-12T06:19:38.620Z,1024.00
2019-02-12T06:20:38.590Z,1023.98
2019-02-12T06:21:38.608Z,1024.03
2019-02-12T06:22:38.564Z,1024.01
2019-02-12T06:23:38.551Z,1024.00
2019-02-12T06:24:38.538Z,1024.03
2019-02-12T06:25:38.554Z,1024.01
2019-02-12T06:26:38.531Z,1024.00
2019-02-12T06:27:38.507Z,1024.06
2019-02-12T06:28:38.505Z,1024.06
2019-02-12T06:29:38.485Z,1024.12
2019-02-12T06:30:38.509Z,1024.15
2019-02-12T06:31:38.464Z,1024.15
2019-02-12T06:32:38.454Z,1024.17
2019-02-12T06:33:38.447Z,1024.19
2019-02-12T06:34:38.450Z,1024.17
2019-02-12T06:35:38.455Z,1024.18
2019-02-12T06:36:38.407Z,1024.13
2019-02-12T06:37:38.401Z,1024.16
2019-02-12T06:38:38.395Z,1024.15
2019-02-12T06:39:38.372Z,1024.16
2019-02-12T06:40:38.398Z,1024.16
2019-02-12T06:41:38.361Z,1024.15
2019-02-12T06:42:38.344Z,1024.14
2019-02-12T06:43:38.329Z,1024.16
2019-02-12T06:44:38.321Z,1024.16
2019-02-12T06:45:38.368Z,1024.19
2019-02-12T06:46:38.336Z,1024.22
2019-02-12T06:47:38.288Z,1024.27
2019-02-12T06:48:38.279Z,1024.29
2019-02-12T06:49:38.270Z,1024.29
2019-02-12T06:50:38.259Z,1024.33
2019-02-12T06:51:38.270Z,1024.33
2019-02-12T06:52:38.243Z,1024.31
2019-02-12T06:53:38.221Z,1024.35
2019-02-12T06:54:38.207Z,1024.32
2019-02-12T06:55:38.194Z,1024.35
2019-02-12T06:56:38.215Z,1024.28
2019-02-12T06:57:38.173Z,1024.28
2019-02-12T06:58:38.185Z,1024.26
2019-02-12T06:59:38.150Z,1024.30
2019-02-12T07:00:38.147Z,1024.29
2019-02-12T07:01:38.153Z,1024.32
2019-02-12T07:02:38.130Z,1024.35
2019-02-12T07:03:38.111Z,1024.36
2019-02-12T07:04:38.104Z,1024.43
2019-02-12T07:05:38.084Z,1024.48
2019-02-12T07:06:38.108Z,1024.48
2019-02-12T07:07:38.072Z,1024.54
2019-02-12T07:08:38.051Z,1024.53
2019-02-12T07:09:38.040Z,1024.48
2019-02-12T07:10:38.029Z,1024.51
2019-02-12T07:11:38.026Z,1024.50
2019-02-12T07:12:38.039Z,1024.50
2019-02-12T07:13:38.000Z,1024.46
2019-02-12T07:14:37.991Z,1024.46
2019-02-12T07:15:37.974Z,1024.46
2019-02-12T07:16:37.967Z,1024.50
2019-02-12T07:17:37.979Z,1024.49
2019-02-12T07:18:37.947Z,1024.52
2019-02-12T07:19:37.930Z,1024.58
2019-02-12T07:20:37.920Z,1024.59
2019-02-12T07:21:37.907Z,1024.62
2019-02-12T07:22:37.939Z,1024.66
2019-02-12T07:23:37.896Z,1024.70
2019-02-12T07:24:37.895Z,1024.70
2019-02-12T07:25:37.871Z,1024.70
2019-02-12T07:26:37.857Z,1024.74
2019-02-12T07:27:37.879Z,1024.74
2019-02-12T07:28:37.834Z,1024.76
2019-02-12T07:29:37.831Z,1024.80
2019-02-12T07:30:37.820Z,1024.85
2019-02-12T07:31:37.800Z,1024.87
2019-02-12T07:32:37.817Z,1024.91
2019-02-12T07:33:37.783Z,1024.93
2019-02-12T07:34:37.799Z,1024.89
2019-02-12T07:35:37.766Z,1024.90
2019-02-12T07:36:37.771Z,1024.92
2019-02-12T07:37:37.765Z,1024.92
2019-02-12T07:38:37.757Z,1024.92
2019-02-12T07:39:37.712Z,1024.96
2019-02-12T07:40:37.703Z,1024.93
2019-02-12T07:41:37.699Z,1024.96
2019-02-12T07:42:37.688Z,1025.01
2019-02-12T07:43:37.718Z,1024.99
2019-02-12T07:44:37.663Z,1025.02
2019-02-12T07:45:37.673Z,1025.04
2019-02-12T07:46:37.649Z,1025.03
2019-02-12T07:47:37.637Z,1025.08
2019-02-12T07:48:37.643Z,1025.05
2019-02-12T07:49:37.611Z,1025.05
2019-02-12T07:50:37.629Z,1025.01
2019-02-12T07:51:37.578Z,1025.01
2019-02-12T07:52:37.574Z,1025.01
2019-02-12T07:53:37.592Z,1025.01
2019-02-12T07:54:37.541Z,1024.99
2019-02-12T07:55:37.544Z,1024.96
2019-02-12T07:56:37.521Z,1024.98
2019-02-12T07:57:37.524Z,1024.99
2019-02-12T07:58:37.548Z,1025.04
2019-02-12T07:59:37.493Z,1025.00
2019-02-12T08:00:37.490Z,1025.05
2019-02-12T08:01:37.469Z,1025.05
2019-02-12T08:02:37.459Z,1025.03
2019-02-12T08:03:37.475Z,1025.03
2019-02-12T08:04:37.448Z,1025.07
2019-02-12T08:05:37.420Z,1025.05
2019-02-12T08:06:37.416Z,1025.07
2019-02-12T08:07:37.406Z,1025.08
2019-02-12T08:08:37.433Z,1025.07
2019-02-12T08:09:37.407Z,1025.13
2019-02-12T08:10:37.369Z,1025.11
2019-02-12T08:11:37.356Z,1025.14
2019-02-12T08:12:37.348Z,1025.18
2019-02-12T08:13:37.340Z,1025.23
2019-02-12T08:14:37.344Z,1025.21
2019-02-12T08:15:37.316Z,1025.25
2019-02-12T08:16:37.307Z,1025.26
2019-02-12T08:17:37.300Z,1025.27
2019-02-12T08:18:37.281Z,1025.31
2019-02-12T08:19:37.303Z,1025.28
2019-02-12T08:20:37.260Z,1025.33
2019-02-12T08:21:37.247Z,1025.31
2019-02-12T08:22:37.236Z,1025.32
2019-02-12T08:23:41.324Z,1025.34
2019-02-12T08:24:37.252Z,1025.34
2019-02-12T08:25:37.199Z,1025.35
2019-02-12T08:26:37.187Z,1025.34
2019-02-12T08:27:37.192Z,1025.36
2019-02-12T08:28:37.168Z,1025.38
2019-02-12T08:29:37.181Z,1025.41
2019-02-12T08:30:37.144Z,1025.40
2019-02-12T08:31:37.142Z,1025.36
2019-02-12T08:32:37.143Z,1025.43
2019-02-12T08:33:37.125Z,1025.43
2019-02-12T08:34:37.131Z,1025.43
2019-02-12T08:35:37.089Z,1025.43
2019-02-12T08:36:37.087Z,1025.43
2019-02-12T08:37:37.083Z,1025.43
2019-02-12T08:38:37.057Z,1025.47
2019-02-12T08:39:37.083Z,1025.48
2019-02-12T08:40:37.065Z,1025.49
2019-02-12T08:42:38.126Z,1025.49
2019-02-12T08:43:37.006Z,1025.53
2019-02-12T08:44:37.001Z,1025.51
2019-02-12T08:45:37.024Z,1025.51
2019-02-12T08:46:36.973Z,1025.53
2019-02-12T08:47:36.958Z,1025.54
2019-02-12T08:48:36.948Z,1025.57
2019-02-12T08:49:36.939Z,1025.60
2019-02-12T08:50:36.932Z,1025.62
2019-02-12T08:51:36.941Z,1025.67
2019-02-12T08:52:36.910Z,1025.66
2019-02-12T08:53:36.906Z,1025.63
2019-02-12T08:54:36.893Z,1025.63
2019-02-12T08:55:36.985Z,1025.68
2019-02-12T08:56:36.888Z,1025.64
2019-02-12T08:57:36.856Z,1025.64
2019-02-12T08:58:36.841Z,1025.65
2019-02-12T08:59:36.833Z,1025.70
2019-02-12T09:00:36.843Z,1025.66
2019-02-12T09:01:36.842Z,1025.69
2019-02-12T09:02:36.800Z,1025.68
2019-02-12T09:03:36.790Z,1025.67
2019-02-12T09:04:36.792Z,1025.65
2019-02-12T09:05:36.768Z,1025.69
2019-02-12T09:06:36.783Z,1025.70
2019-02-12T09:07:36.752Z,1025.68
2019-02-12T09:08:36.732Z,1025.71
2019-02-12T09:09:36.722Z,1025.63
2019-02-12T09:10:36.715Z,1025.61
2019-02-12T09:11:36.729Z,1025.65
2019-02-12T09:12:36.691Z,1025.64
2019-02-12T09:13:36.710Z,1025.62
2019-02-12T09:14:36.674Z,1025.61
2019-02-12T09:15:36.664Z,1025.64
2019-02-12T09:16:36.694Z,1025.66
2019-02-12T09:17:36.640Z,1025.67
2019-02-12T09:18:36.628Z,1025.68
2019-02-12T09:19:36.624Z,1025.66
2019-02-12T09:20:36.613Z,1025.67
2019-02-12T09:21:36.629Z,1025.74
2019-02-12T09:22:36.581Z,1025.72
2019-02-12T09:23:36.575Z,1025.72
2019-02-12T09:24:36.566Z,1025.72
2019-02-12T09:25:36.551Z,1025.70
2019-02-12T09:26:36.603Z,1025.73
2019-02-12T09:27:36.557Z,1025.73
2019-02-12T09:28:36.518Z,1025.75
2019-02-12T09:29:36.512Z,1025.79
2019-02-12T09:30:36.500Z,1025.78
2019-02-12T09:31:36.498Z,1025.81
2019-02-12T09:32:36.508Z,1025.79
2019-02-12T09:33:36.468Z,1025.81
2019-02-12T09:34:36.452Z,1025.78
2019-02-12T09:35:36.442Z,1025.82
2019-02-12T09:36:36.431Z,1025.82
2019-02-12T09:37:36.446Z,1025.88
2019-02-12T09:38:36.409Z,1025.85
2019-02-12T09:39:36.412Z,1025.89
2019-02-12T09:40:36.390Z,1025.86
2019-02-12T09:41:36.374Z,1025.81
2019-02-12T09:42:36.398Z,1025.78
2019-02-12T09:43:36.353Z,1025.79
2019-02-12T09:44:36.337Z,1025.80
2019-02-12T09:45:36.360Z,1025.81
2019-02-12T09:46:36.318Z,1025.78
2019-02-12T09:47:36.319Z,1025.79
2019-02-12T09:48:36.328Z,1025.82
2019-02-12T09:49:36.283Z,1025.81
2019-02-12T09:50:36.275Z,1025.82
2019-02-12T09:51:36.300Z,1025.86
2019-02-12T09:52:36.251Z,1025.87
2019-02-12T09:53:36.270Z,1025.87
2019-02-12T09:54:36.240Z,1025.90
2019-02-12T09:55:36.216Z,1025.86
2019-02-12T09:56:36.206Z,1025.91
2019-02-12T09:57:36.203Z,1025.95
2019-02-12T09:58:36.217Z,1025.96
2019-02-12T09:59:36.193Z,1026.02
2019-02-12T10:00:36.165Z,1025.96
2019-02-12T10:01:36.162Z,1026.04
2019-02-12T10:02:36.137Z,1026.05
2019-02-12T10:03:36.150Z,1026.04
2019-02-12T10:04:36.135Z,1026.05
2019-02-12T10:05:36.108Z,1026.05
2019-02-12T10:06:36.094Z,1026.05
2019-02-12T10:07:36.176Z,1026.06
2019-02-12T10:08:36.102Z,1026.09
2019-02-12T10:09:36.062Z,1026.16
2019-02-12T10:10:36.064Z,1026.10
2019-02-12T10:11:36.041Z,1026.08
2019-02-12T10:12:36.030Z,1026.07
2019-02-12T10:13:36.043Z,1026.14
2019-02-12T10:14:36.032Z,1026.12
2019-02-12T10:15:36.001Z,1026.13
2019-02-12T10:16:35.985Z,1026.14
2019-02-12T10:17:35.977Z,1026.10
2019-02-12T10:18:35.962Z,1026.10
2019-02-12T10:19:35.976Z,1026.12
2019-02-12T10:20:35.951Z,1026.13
2019-02-12T10:21:35.938Z,1026.18
2019-02-12T10:22:35.926Z,1026.15
2019-02-12T10:23:35.944Z,1026.19
2019-02-12T10:24:35.921Z,1026.23
2019-02-12T10:25:35.891Z,1026.24
2019-02-12T10:26:35.879Z,1026.24
2019-02-12T10:27:35.872Z,1026.25
2019-02-12T10:28:35.885Z,1026.21
2019-02-12T10:29:35.874Z,1026.28
2019-02-12T10:30:35.861Z,1026.28
2019-02-12T10:31:35.826Z,1026.30
2019-02-12T10:32:35.825Z,1026.29
2019-02-12T10:33:35.854Z,1026.25
2019-02-12T10:34:35.831Z,1026.26
2019-02-12T10:35:35.785Z,1026.26
2019-02-12T10:36:35.774Z,1026.26
2019-02-12T10:37:35.791Z,1026.24
2019-02-12T10:38:35.752Z,1026.28
2019-02-12T10:39:35.821Z,1026.27
2019-02-12T10:40:35.730Z,1026.32
2019-02-12T10:41:35.726Z,1026.28
2019-02-12T10:42:35.708Z,1026.25
2019-02-12T10:43:35.691Z,1026.21
2019-02-12T10:44:35.709Z,1026.24
2019-02-12T10:45:35.669Z,1026.22
2019-02-12T10:46:35.661Z,1026.24
2019-02-12T10:47:35.649Z,1026.24
2019-02-12T10:48:35.647Z,1026.22
2019-02-12T10:49:35.662Z,1026.21
2019-02-12T10:50:35.617Z,1026.24
2019-02-12T10:51:35.603Z,1026.19
2019-02-12T10:52:35.592Z,1026.18
2019-02-12T10:53:35.588Z,1026.19
2019-02-12T10:54:35.567Z,1026.15
2019-02-12T10:55:35.595Z,1026.22
2019-02-12T10:56:35.557Z,1026.15
2019-02-12T10:57:35.541Z,1026.16
2019-02-12T10:58:35.527Z,1026.21
2019-02-12T10:59:35.544Z,1026.16
2019-02-12T11:00:35.529Z,1026.19
2019-02-12T11:01:35.500Z,1026.13
2019-02-12T11:02:35.480Z,1026.13
2019-02-12T11:03:35.471Z,1026.17
2019-02-12T11:04:35.455Z,1026.14
2019-02-12T11:05:35.480Z,1026.11
2019-02-12T11:06:35.439Z,1026.13
2019-02-12T11:07:35.421Z,1026.10
2019-02-12T11:08:35.422Z,1026.13
2019-02-12T11:09:35.407Z,1026.09
2019-02-12T11:10:35.671Z,1026.08
2019-02-12T11:11:35.389Z,1026.05
2019-02-12T11:12:35.442Z,1026.03
2019-02-12T11:13:35.355Z,1026.06
2019-02-12T11:14:35.482Z,1026.07
2019-02-12T11:15:35.371Z,1026.04
2019-02-12T11:16:35.474Z,1026.07
2019-02-12T11:17:35.321Z,1026.03
2019-02-12T11:18:35.352Z,1026.03
2019-02-12T11:19:35.289Z,1026.00
2019-02-12T11:20:35.409Z,1025.98
2019-02-12T11:21:35.286Z,1026.03
2019-02-12T11:22:35.264Z,1026.05
2019-02-12T11:23:35.246Z,1026.09
2019-02-12T11:24:35.808Z,1026.07
2019-02-12T11:25:35.259Z,1026.05
2019-02-12T11:26:35.220Z,1026.05
2019-02-12T11:27:35.206Z,1026.03
2019-02-12T11:28:35.186Z,1026.06
2019-02-12T11:29:35.180Z,1026.03
2019-02-12T11:30:35.170Z,1026.04
2019-02-12T11:31:35.181Z,1026.02
2019-02-12T11:32:35.147Z,1026.01
2019-02-12T11:33:35.144Z,1026.09
2019-02-12T11:34:35.119Z,1026.05
2019-02-12T11:35:35.120Z,1026.02
2019-02-12T11:36:35.131Z,1026.03
2019-02-12T11:37:35.088Z,1025.99
2019-02-12T11:38:35.086Z,1026.05
2019-02-12T11:39:35.065Z,1026.05
2019-02-12T11:40:35.052Z,1025.98
2019-02-12T11:41:36.151Z,1025.98
2019-02-12T11:42:35.033Z,1025.98
2019-02-12T11:43:35.020Z,1025.98
2019-02-12T11:44:35.013Z,1026.03
2019-02-12T11:45:35.003Z,1025.96
2019-02-12T11:46:35.019Z,1025.95
2019-02-12T11:47:34.977Z,1025.98
2019-02-12T11:48:34.963Z,1025.95
2019-02-12T11:49:34.958Z,1025.93
2019-02-12T11:50:34.945Z,1025.90
2019-02-12T11:51:34.953Z,1025.89
2019-02-12T11:52:34.928Z,1025.91
2019-02-12T11:53:34.907Z,1025.94
2019-02-12T11:54:34.900Z,1025.90
2019-02-12T11:55:34.889Z,1025.93
2019-02-12T11:56:34.950Z,1025.95
2019-02-12T11:57:34.870Z,1025.93
2019-02-12T11:58:34.857Z,1025.94
2019-02-12T11:59:34.846Z,1025.96
2019-02-12T12:00:34.833Z,1026.05
2019-02-12T12:01:34.853Z,1026.01
2019-02-12T12:02:41.844Z,1026.01
2019-02-12T12:03:35.808Z,1025.94
2019-02-12T12:04:34.821Z,1025.97
2019-02-12T12:05:34.776Z,1025.96
2019-02-12T12:06:34.799Z,1025.91